.
WxDataArchive / Data Records for 2006-06-15
2006-06-14 June 2006 2006-06-16

Data Records for Thursday, 15 June 2006

Time	Temp	Chill	HIndex	Humid	Dewpt	 Wind 	HiWind	WindDir	Rain 	Barom 
-----	----	-----	------	-----	-----	------	------	-------	-----	----- 
00:00	61.6	61.6	61.6	74	53.2	0	0	---	0.00	30.032 
00:05	61.5	61.5	61.5	74	53.1	0	0	---	0.00	30.032 
00:10	61.2	61.2	61.2	75	53.2	0	0	---	0.00	30.032 
00:15	60.9	60.9	60.9	75	52.9	0	0	---	0.00	30.037 
00:20	60.5	60.5	60.5	77	53.2	0	0	---	0.00	30.037 
00:25	60.4	60.4	60.4	77	53.2	0	0	---	0.00	30.037 
00:30	60.2	60.2	60.2	79	53.7	0	0	---	0.00	30.035 
00:35	60.1	60.1	60.1	81	54.2	0	0	---	0.00	30.035 
00:40	59.9	59.9	59.9	81	54.1	0	0	---	0.00	30.035 
00:45	59.8	59.8	59.8	81	54.0	0	0	---	0.00	30.036 
00:50	59.6	59.6	59.6	81	53.8	0	0	---	0.00	30.036 
00:55	59.5	59.5	59.5	82	54.0	0	0	---	0.00	30.036 
01:00	59.3	59.3	59.3	83	54.1	0	0	---	0.00	30.041 
01:05	59.2	59.2	59.2	83	54.0	0	0	---	0.00	30.041 
01:10	59.0	59.0	59.0	82	53.5	0	0	---	0.00	30.041 
01:15	58.9	58.9	58.9	82	53.4	0	0	---	0.00	30.042 
01:20	58.7	58.7	58.7	82	53.2	0	0	---	0.00	30.042 
01:25	58.6	58.6	58.6	83	53.4	0	0	---	0.00	30.042 
01:30	58.4	58.4	58.4	83	53.3	0	0	---	0.00	30.042 
01:35	58.3	58.3	58.3	83	53.2	0	0	---	0.00	30.042 
01:40	58.0	58.0	58.0	84	53.2	0	0	---	0.00	30.042 
01:45	57.8	57.8	57.8	84	53.0	0	0	---	0.00	30.038 
01:50	57.6	57.6	57.6	84	52.8	0	0	---	0.00	30.038 
01:55	57.5	57.5	57.5	85	53.0	0	0	---	0.00	30.038 
02:00	57.5	57.5	57.5	85	53.0	0	0	---	0.00	30.042 
02:05	57.3	57.3	57.3	85	52.8	0	0	---	0.00	30.042 
02:10	57.3	57.3	57.3	85	52.8	0	0	---	0.00	30.042 
02:15	57.3	57.3	57.3	85	52.8	0	0	---	0.00	30.045 
02:20	57.2	57.2	57.2	85	52.7	0	0	---	0.00	30.045 
02:25	57.0	57.0	57.0	85	52.5	0	0	---	0.00	30.045 
02:30	56.9	56.9	56.9	85	52.4	0	0	---	0.00	30.048 
02:35	56.7	56.7	56.7	86	52.6	0	0	---	0.00	30.048 
02:40	56.6	56.6	56.6	86	52.5	0	0	---	0.00	30.048 
02:45	56.6	56.6	56.6	87	52.8	0	0	---	0.00	30.047 
02:50	56.5	56.5	56.5	87	52.7	0	0	---	0.00	30.047 
02:55	56.3	56.3	56.3	88	52.8	0	0	---	0.00	30.047 
03:00	56.3	56.3	56.3	88	52.8	0	0	---	0.00	30.049 
03:05	56.2	56.2	56.2	88	52.7	0	0	---	0.00	30.049 
03:10	56.0	56.0	56.0	88	52.5	0	0	---	0.00	30.049 
03:15	55.9	55.9	55.9	88	52.4	0	0	---	0.00	30.050 
03:20	55.7	55.7	55.7	88	52.2	0	0	---	0.00	30.050 
03:25	55.7	55.7	55.7	88	52.2	0	0	---	0.00	30.050 
03:30	55.6	55.6	55.6	89	52.4	0	0	---	0.00	30.051 
03:35	55.4	55.4	55.4	89	52.2	0	0	---	0.00	30.051 
03:40	55.4	55.4	55.4	90	52.5	0	0	---	0.00	30.051 
03:45	55.4	55.4	55.4	90	52.5	0	0	---	0.00	30.051 
03:50	55.3	55.3	55.3	91	52.7	0	0	---	0.00	30.051 
03:55	55.1	55.1	55.1	91	52.5	0	0	---	0.00	30.051 
04:00	55.1	55.1	55.1	90	52.2	0	0	---	0.00	30.049 
04:05	55.0	55.0	55.0	91	52.4	0	0	---	0.00	30.049 
04:10	54.8	54.8	54.8	91	52.2	0	0	---	0.00	30.049 
04:15	54.7	54.7	54.7	91	52.1	0	0	---	0.00	30.051 
04:20	54.5	54.5	54.5	90	51.6	0	0	---	0.00	30.051 
04:25	54.4	54.4	54.4	90	51.5	0	0	---	0.00	30.051 
04:30	54.2	54.2	54.2	91	51.6	0	0	---	0.00	30.058 
04:35	54.1	54.1	54.1	91	51.5	0	0	---	0.00	30.058 
04:40	54.1	54.1	54.1	91	51.5	0	0	---	0.00	30.058 
04:45	53.9	53.9	53.9	91	51.3	0	0	---	0.00	30.062 
04:50	53.9	53.9	53.9	91	51.3	0	0	---	0.00	30.062 
04:55	53.8	53.8	53.8	91	51.2	0	0	---	0.00	30.062 
05:00	53.6	53.6	53.6	91	51.0	0	0	---	0.00	30.064 
05:05	53.6	53.6	53.6	91	51.0	0	0	---	0.00	30.064 
05:10	53.5	53.5	53.5	91	50.9	0	0	---	0.00	30.064 
05:15	53.5	53.5	53.5	92	51.2	0	0	---	0.00	30.066 
05:20	53.3	53.3	53.3	92	51.0	0	0	---	0.00	30.066 
05:25	53.2	53.2	53.2	92	50.9	0	0	---	0.00	30.066 
05:30	53.2	53.2	53.2	92	50.9	0	0	---	0.00	30.074 
05:35	53.2	53.2	53.2	92	50.9	0	0	---	0.00	30.074 
05:40	53.1	53.1	53.1	92	50.8	0	0	---	0.00	30.074 
05:45	53.1	53.1	53.1	92	50.8	0	0	---	0.00	30.079 
05:50	53.1	53.1	53.1	92	50.8	0	0	---	0.00	30.079 
05:55	52.9	52.9	52.9	92	50.6	0	0	---	0.00	30.079 
06:00	52.9	52.9	52.9	92	50.6	0	0	---	0.00	30.081 
06:05	52.9	52.9	52.9	92	50.6	0	0	---	0.00	30.081 
06:10	52.8	52.8	52.8	93	50.8	0	0	---	0.00	30.081 
06:15	52.8	52.8	52.8	93	50.8	0	0	---	0.00	30.084 
06:20	52.8	52.8	52.8	93	50.8	0	0	---	0.00	30.084 
06:25	52.8	52.8	52.8	93	50.8	0	0	---	0.00	30.084 
06:30	52.8	52.8	52.8	93	50.8	0	0	---	0.00	30.087 
06:35	52.9	52.9	52.9	93	50.9	0	0	---	0.00	30.087 
06:40	52.9	52.9	52.9	94	51.2	0	0	---	0.00	30.087 
06:45	52.9	52.9	52.9	94	51.2	0	0	---	0.00	30.094 
06:50	53.1	53.1	53.1	94	51.4	0	0	---	0.00	30.094 
06:55	53.2	53.2	53.2	94	51.5	0	0	---	0.00	30.094 
07:00	53.3	53.3	53.3	94	51.6	0	0	---	0.00	30.098 
07:05	53.6	53.6	53.6	94	51.9	0	0	---	0.00	30.098 
07:10	54.1	54.1	54.1	94	52.4	0	1	68	0.00	30.098 
07:15	54.8	54.8	54.8	87	51.0	0	2	68	0.00	30.098 
07:20	55.7	55.7	55.7	87	51.9	0	0	---	0.00	30.098 
07:25	56.6	56.6	56.6	81	50.8	0	1	68	0.00	30.098 
07:30	58.0	58.0	58.0	78	51.2	0	1	68	0.00	30.103 
07:35	59.3	59.3	59.3	75	51.4	0	1	68	0.00	30.103 
07:40	59.8	59.8	59.8	75	51.9	0	0	---	0.00	30.103 
07:45	60.9	60.9	60.9	72	51.8	0	1	68	0.00	30.106 
07:50	62.1	62.1	62.1	69	51.8	0	2	68	0.00	30.106 
07:55	62.9	62.9	62.9	68	52.2	0	1	68	0.00	30.106 
08:00	63.4	63.4	63.4	68	52.6	1	3	68	0.00	30.106 
08:05	63.7	63.7	63.7	66	52.1	1	3	68	0.00	30.106 
08:10	64.3	64.3	64.3	66	52.7	0	1	68	0.00	30.106 
08:15	64.7	64.7	64.7	66	53.1	0	1	68	0.00	30.119 
08:20	65.5	65.5	65.5	63	52.6	0	1	68	0.00	30.119 
08:25	66.4	66.4	66.4	63	53.4	0	0	---	0.00	30.119 
08:30	67.1	67.1	67.1	63	54.1	0	2	68	0.00	30.121 
08:35	67.6	67.6	67.6	62	54.1	0	1	68	0.00	30.121 
08:40	68.4	68.4	68.4	60	54.0	0	2	68	0.00	30.121 
08:45	68.3	68.3	68.3	59	53.4	0	2	68	0.00	30.127 
08:50	68.1	68.1	68.1	61	54.1	0	0	---	0.00	30.127 
08:55	68.1	68.1	68.1	58	52.8	0	1	68	0.00	30.127 
09:00	68.3	68.3	68.3	57	52.5	0	1	68	0.00	30.134 
09:05	68.1	68.1	68.1	58	52.8	0	1	68	0.00	30.134 
09:10	67.9	67.9	67.9	58	52.6	0	1	68	0.00	30.134 
09:15	68.1	68.1	68.1	58	52.8	0	2	68	0.00	30.140 
09:20	68.3	68.3	68.3	58	52.9	0	2	68	0.00	30.140 
09:25	68.6	68.6	68.6	59	53.7	0	2	68	0.00	30.140 
09:30	68.8	68.8	68.8	59	53.9	1	3	68	0.00	30.138 
09:35	69.3	69.3	69.3	59	54.3	0	2	68	0.00	30.138 
09:40	69.6	69.6	69.6	57	53.7	0	2	68	0.00	30.138 
09:45	69.4	69.4	69.4	56	53.0	1	2	68	0.00	30.143 
09:50	69.8	69.8	69.8	56	53.4	1	3	68	0.00	30.143 
09:55	70.4	70.4	70.4	54	52.9	2	5	68	0.00	30.143 
10:00	70.9	70.9	70.9	52	52.4	2	5	90	0.00	30.134 
10:05	71.3	71.3	71.3	48	50.6	2	5	90	0.00	30.134 
10:10	72.3	72.3	72.3	50	52.6	1	2	135	0.00	30.134 
10:15	72.8	72.8	72.8	50	53.1	2	4	68	0.00	30.136 
10:20	73.3	73.3	73.3	43	49.4	1	3	90	0.00	30.136 
10:25	73.7	73.7	73.7	43	49.8	1	3	90	0.00	30.136 
10:30	74.2	74.2	74.2	42	49.6	1	3	112	0.00	30.138 
10:35	74.6	74.6	74.6	42	50.0	1	3	112	0.00	30.138 
10:40	75.1	75.1	77.6	42	50.4	1	2	112	0.00	30.138 
10:45	75.4	75.4	77.6	41	50.0	1	5	112	0.00	30.141 
10:50	75.3	75.3	77.4	36	46.5	2	4	90	0.00	30.141 
10:55	75.4	75.4	77.5	38	48.0	1	4	90	0.00	30.141 
11:00	75.1	75.1	77.4	38	47.7	1	4	90	0.00	30.141 
11:05	75.6	75.6	77.4	35	46.0	1	2	90	0.00	30.141 
11:10	76.3	76.3	77.8	37	48.1	1	4	90	0.00	30.141 
11:15	76.3	76.3	77.8	37	48.1	2	4	90	0.00	30.142 
11:20	76.3	76.3	77.7	35	46.6	2	4	90	0.00	30.142 
11:25	76.1	76.1	77.7	36	47.2	1	4	45	0.00	30.142 
11:30	76.1	76.1	77.6	35	46.4	1	3	270	0.00	30.147 
11:35	76.8	76.8	77.9	35	47.1	1	3	135	0.00	30.147 
11:40	77.2	77.2	78.1	35	47.4	1	3	135	0.00	30.147 
11:45	77.4	77.4	78.3	37	49.1	2	4	112	0.00	30.142 
11:50	77.4	77.4	78.1	35	47.6	2	4	112	0.00	30.142 
11:55	77.6	77.6	78.4	37	49.2	1	3	112	0.00	30.142 
12:00	77.9	77.9	78.4	36	48.8	1	3	90	0.00	30.137 
12:05	78.1	78.1	78.5	36	48.9	1	4	90	0.00	30.137 
12:10	77.6	77.6	78.2	35	47.8	3	5	90	0.00	30.137 
12:15	77.4	77.4	78.1	34	46.8	1	3	90	0.00	30.142 
12:20	78.1	78.1	78.4	33	46.6	1	4	90	0.00	30.142 
12:25	77.9	77.9	78.3	33	46.5	2	4	90	0.00	30.142 
12:30	78.1	78.1	78.4	33	46.6	1	3	158	0.00	30.143 
12:35	78.5	78.5	78.6	34	47.8	1	3	90	0.00	30.143 
12:40	78.8	78.8	78.9	36	49.6	0	2	90	0.00	30.143 
12:45	78.6	78.6	78.7	35	48.6	2	5	90	0.00	30.140 
12:50	78.5	78.5	78.6	34	47.8	1	3	248	0.00	30.140 
12:55	78.8	78.8	78.7	33	47.2	1	3	112	0.00	30.140 
13:00	78.8	78.8	78.7	33	47.2	1	3	225	0.00	30.139 
13:05	79.0	79.0	78.8	33	47.4	1	4	248	0.00	30.139 
13:10	79.0	79.0	79.1	37	50.5	2	4	248	0.00	30.139 
13:15	79.4	79.4	79.2	36	50.1	1	3	45	0.00	30.137 
13:20	79.8	79.8	79.3	34	48.9	1	3	248	0.00	30.137 
13:25	79.9	79.9	79.2	31	46.5	2	5	90	0.00	30.137 
13:30	79.0	79.0	78.8	33	47.4	1	3	90	0.00	30.128 
13:35	79.0	79.0	78.9	34	48.2	1	4	90	0.00	30.128 
13:40	79.2	79.2	78.9	33	47.6	2	4	112	0.00	30.128 
13:45	79.2	79.2	79.3	38	51.4	1	3	90	0.00	30.123 
13:50	79.2	79.2	79.1	35	49.2	1	3	90	0.00	30.123 
13:55	79.2	79.2	79.2	37	50.7	2	5	90	0.00	30.123 
14:00	79.2	79.2	79.2	37	50.7	1	3	112	0.00	30.110 
14:05	79.2	79.2	79.3	38	51.4	1	5	112	0.00	30.110 
14:10	79.8	79.8	79.3	34	48.9	0	1	90	0.00	30.110 
14:15	80.1	80.1	79.6	35	50.0	1	3	90	0.00	30.113 
14:20	80.1	80.1	79.5	33	48.4	2	5	90	0.00	30.113 
14:25	80.1	80.1	79.7	36	50.7	1	2	112	0.00	30.113 
14:30	79.6	79.6	79.2	34	48.7	2	3	112	0.00	30.117 
14:35	79.6	79.6	79.4	36	50.3	1	2	112	0.00	30.117 
14:40	79.4	79.4	79.3	37	50.8	2	5	112	0.00	30.117 
14:45	79.4	79.4	79.3	37	50.8	1	3	248	0.00	30.114 
14:50	79.6	79.6	79.4	36	50.3	0	2	248	0.00	30.114 
14:55	79.9	79.9	79.7	38	52.0	1	2	225	0.00	30.114 
15:00	80.7	80.7	80.6	42	55.4	0	2	248	0.00	30.113 
15:05	80.9	80.9	80.1	35	50.7	1	4	248	0.00	30.113 
15:10	81.1	81.1	80.3	35	50.8	1	3	248	0.00	30.113 
15:15	80.7	80.7	79.8	33	48.9	1	4	90	0.00	30.108 
15:20	80.7	80.7	80.0	35	50.5	1	4	90	0.00	30.108 
15:25	80.7	80.7	80.2	37	52.0	1	3	90	0.00	30.108 
15:30	80.9	80.9	80.1	35	50.7	1	3	90	0.00	30.106 
15:35	80.9	80.9	80.2	36	51.4	1	3	90	0.00	30.106 
15:40	81.1	81.1	80.5	38	53.1	1	4	112	0.00	30.106 
15:45	81.2	81.2	80.4	36	51.7	2	5	248	0.00	30.105 
15:50	81.4	81.4	80.3	33	49.5	1	2	248	0.00	30.105 
15:55	81.1	81.1	80.4	36	51.6	1	4	90	0.00	30.105 
16:00	80.9	80.9	80.6	40	54.3	0	2	90	0.00	30.101 
16:05	81.2	81.2	80.7	39	53.9	1	3	90	0.00	30.101 
16:10	81.6	81.6	80.6	35	51.3	1	4	90	0.00	30.101 
16:15	81.6	81.6	80.6	35	51.3	2	4	112	0.00	30.095 
16:20	81.2	81.2	80.5	37	52.4	2	4	90	0.00	30.095 
16:25	81.1	81.1	80.3	35	50.8	2	6	112	0.00	30.095 
16:30	81.1	81.1	80.4	36	51.6	1	4	90	0.00	30.093 
16:35	81.1	81.1	80.2	34	50.0	1	3	90	0.00	30.093 
16:40	81.4	81.4	80.5	35	51.1	1	3	90	0.00	30.093 
16:45	81.6	81.6	80.5	33	49.7	1	2	225	0.00	30.092 
16:50	81.2	81.2	80.3	35	50.9	0	1	158	0.00	30.092 
16:55	81.4	81.4	80.8	38	53.3	1	3	248	0.00	30.092 
17:00	81.6	81.6	80.6	35	51.3	1	2	248	0.00	30.091 
17:05	81.6	81.6	80.5	34	50.5	0	2	248	0.00	30.091 
17:10	81.6	81.6	80.9	38	53.5	0	4	248	0.00	30.091 
17:15	81.6	81.6	80.9	38	53.5	1	3	270	0.00	30.092 
17:20	81.6	81.6	80.8	37	52.8	2	4	112	0.00	30.092 
17:25	81.2	81.2	80.8	40	54.6	1	3	90	0.00	30.092 
17:30	81.1	81.1	80.4	37	52.3	0	2	90	0.00	30.091 
17:35	81.1	81.1	80.5	38	53.1	0	2	90	0.00	30.091 
17:40	80.9	80.9	80.7	41	55.0	1	2	68	0.00	30.091 
17:45	81.1	81.1	80.6	39	53.8	1	4	248	0.00	30.084 
17:50	81.1	81.1	80.5	38	53.1	1	3	248	0.00	30.084 
17:55	80.9	80.9	80.2	36	51.4	0	3	135	0.00	30.084 
18:00	80.7	80.7	80.2	37	52.0	1	4	112	0.00	30.080 
18:05	80.3	80.3	80.1	40	53.8	0	2	112	0.00	30.080 
18:10	80.3	80.3	80.2	41	54.4	1	2	112	0.00	30.080 
18:15	80.1	80.1	80.0	40	53.6	1	3	90	0.00	30.078 
18:20	80.1	80.1	79.8	38	52.2	1	2	90	0.00	30.078 
18:25	80.3	80.3	80.1	39	53.1	1	3	202	0.00	30.078 
18:30	80.7	80.7	80.3	39	53.4	1	3	112	0.00	30.074 
18:35	80.7	80.7	80.3	39	53.4	1	4	248	0.00	30.074 
18:40	80.5	80.5	80.2	39	53.2	1	3	135	0.00	30.074 
18:45	80.3	80.3	80.0	38	52.4	1	3	248	0.00	30.073 
18:50	80.1	80.1	79.9	39	52.9	1	3	90	0.00	30.073 
18:55	80.3	80.3	80.1	39	53.1	0	2	90	0.00	30.073 
19:00	80.1	80.1	79.9	39	52.9	0	2	90	0.00	30.071 
19:05	80.1	80.1	79.9	39	52.9	0	1	90	0.00	30.071 
19:10	80.1	80.1	79.8	38	52.2	0	2	90	0.00	30.071 
19:15	80.1	80.1	79.8	38	52.2	0	1	90	0.00	30.064 
19:20	80.1	80.1	79.8	38	52.2	0	1	90	0.00	30.064 
19:25	80.3	80.3	80.2	41	54.4	0	1	90	0.00	30.064 
19:30	80.5	80.5	80.1	38	52.5	0	1	90	0.00	30.061 
19:35	80.5	80.5	80.2	39	53.2	0	1	90	0.00	30.061 
19:40	80.1	80.1	80.1	41	54.2	0	2	90	0.00	30.061 
19:45	79.8	79.8	80.0	42	54.6	0	0	---	0.00	30.063 
19:50	79.4	79.4	79.8	43	54.9	0	1	90	0.00	30.063 
19:55	79.0	79.0	79.6	44	55.2	0	1	90	0.00	30.063 
20:00	78.6	78.6	79.4	45	55.5	0	0	---	0.00	30.062 
20:05	78.5	78.5	79.3	45	55.4	0	0	---	0.00	30.062 
20:10	78.3	78.3	79.2	46	55.8	0	0	---	0.00	30.062 
20:15	78.1	78.1	79.1	46	55.6	0	1	90	0.00	30.059 
20:20	77.9	77.9	79.1	48	56.6	0	0	---	0.00	30.059 
20:25	77.4	77.4	78.6	45	54.4	0	0	---	0.00	30.059 
20:30	77.0	77.0	78.5	46	54.6	0	0	---	0.00	30.064 
20:35	76.7	76.7	78.4	49	56.1	0	0	---	0.00	30.064 
20:40	76.1	76.1	78.1	50	56.1	0	1	90	0.00	30.064 
20:45	75.8	75.8	78.0	49	55.3	0	0	---	0.00	30.065 
20:50	75.4	75.4	77.8	49	54.9	0	0	---	0.00	30.065 
20:55	74.9	74.9	74.9	50	55.0	0	0	---	0.00	30.065 
21:00	74.6	74.6	74.6	51	55.3	0	0	---	0.00	30.068 
21:05	74.2	74.2	74.2	51	54.9	0	0	---	0.00	30.068 
21:10	73.7	73.7	73.7	51	54.4	0	0	---	0.00	30.068 
21:15	73.3	73.3	73.3	53	55.1	0	0	---	0.00	30.070 
21:20	73.0	73.0	73.0	54	55.4	0	0	---	0.00	30.070 
21:25	72.7	72.7	72.7	56	56.1	0	0	---	0.00	30.070 
21:30	72.3	72.3	72.3	58	56.7	0	0	---	0.00	30.071 
21:35	72.0	72.0	72.0	58	56.4	0	0	---	0.00	30.071 
21:40	71.6	71.6	71.6	59	56.5	0	0	---	0.00	30.071 
21:45	71.3	71.3	71.3	60	56.7	0	0	---	0.00	30.071 
21:50	70.9	70.9	70.9	61	56.8	0	0	---	0.00	30.071 
21:55	70.6	70.6	70.6	61	56.5	0	0	---	0.00	30.071 
22:00	70.3	70.3	70.3	62	56.7	0	0	---	0.00	30.075 
22:05	70.1	70.1	70.1	65	57.8	0	0	---	0.00	30.075 
22:10	69.8	69.8	69.8	64	57.1	0	0	---	0.00	30.075 
22:15	69.4	69.4	69.4	63	56.2	0	0	---	0.00	30.071 
22:20	69.1	69.1	69.1	64	56.4	0	0	---	0.00	30.071 
22:25	68.9	68.9	68.9	66	57.1	0	0	---	0.00	30.071 
22:30	68.6	68.6	68.6	66	56.8	0	0	---	0.00	30.071 
22:35	68.3	68.3	68.3	66	56.5	0	0	---	0.00	30.071 
22:40	68.1	68.1	68.1	65	55.9	0	0	---	0.00	30.071 
22:45	67.8	67.8	67.8	66	56.0	0	0	---	0.00	30.073 
22:50	67.8	67.8	67.8	67	56.4	0	0	---	0.00	30.073 
22:55	67.6	67.6	67.6	68	56.7	0	0	---	0.00	30.073 
23:00	67.4	67.4	67.4	68	56.5	0	0	---	0.00	30.072 
23:05	67.3	67.3	67.3	68	56.4	0	0	---	0.00	30.072 
23:10	67.3	67.3	67.3	67	56.0	0	0	---	0.00	30.072 
23:15	67.4	67.4	67.4	65	55.2	0	0	---	0.00	30.069 
23:20	67.6	67.6	67.6	66	55.8	0	0	---	0.00	30.069 
23:25	67.6	67.6	67.6	65	55.4	0	0	---	0.00	30.069 
23:30	67.4	67.4	67.4	66	55.6	0	0	---	0.00	30.071 
23:35	67.3	67.3	67.3	66	55.5	0	1	90	0.00	30.071 
23:40	67.3	67.3	67.3	65	55.1	0	1	90	0.00	30.071 
23:45	67.3	67.3	67.3	65	55.1	0	0	---	0.00	30.071 
23:50	67.1	67.1	67.1	67	55.8	0	0	---	0.00	30.071 
23:55	66.9	66.9	66.9	67	55.6	0	0	---	0.00	30.071 

CoCoRaHS
IN-AL-39
A2 Web Hosting
Creative Commons License
GoDaddy
Look for:

loaded 2017-10-19 12:08:18 • last modified 2010-11-18 10:43:29
Privacy PolicyDisclaimer
• wx.awcolley.com is powered by PmWiki v.2002016 •
• all content (unless otherwise noted) © 2017 A W Colley